Terminal Aerodrome Forecast
Issued by NWS Charleston, WV

Current Version | Previous Version | Graphics & Text | Print | Product List | Glossary On
Versions: 1 2 3 4 5 6 7 8 9 10 11 12 13 14 15 16 17 18 19 20 21 22 23 24 25 26 27
176
FTUS41 KRLX 290756 AAC
TAFCRW
TAF AMD
KCRW 290756Z 2908/3006 VRB05KT P6SM SCT070
      TEMPO 2909/2910 3SM TSRA BKN040CB
     FM291300 19005KT P6SM SCT200=

USA.gov is the U.S. government's official web portal to all federal, state and local government web resources and services.